Time;durP1;ratioP1;P1;durP2;ratioP2;P2;SDS_P1;SDS_P2;PMS_P1;PMS_P2;Temp;Humidity;BMP_temperature;BMP_pressure;BME280_temperature;BME280_humidity;BME280_pressure;Samples;Min_cycle;Max_cycle;Signal;HPM_P1;HPM_P2
2023/11/02 00:00:44;;;;;;;5.65;2.88;;;;;;;;;;6081620;23;20242;-94
2023/11/02 00:03:51;;;;;;;8.93;3.10;;;;;;;;;;6075885;23;20179;-94
2023/11/02 00:06:57;;;;;;;6.93;3.30;;;;;;;;;;6082194;23;20246;-92
2023/11/02 00:10:03;;;;;;;10.27;3.85;;;;;;;;;;6077549;23;20177;-92
2023/11/02 00:13:18;;;;;;;7.55;3.88;;;;;;;;;;6078808;23;20203;-92
2023/11/02 00:16:23;;;;;;;6.32;3.00;;;;;;;;;;6077655;23;20166;-93
2023/11/02 00:19:32;;;;;;;12.00;4.68;;;;;;;;;;6075147;23;20183;-92
2023/11/02 00:22:38;;;;;;;11.65;4.45;;;;;;;;;;6075751;23;20183;-92
2023/11/02 00:25:46;;;;;;;7.70;3.00;;;;;;;;;;6074887;23;20679;-90
2023/11/02 00:28:51;;;;;;;8.60;3.47;;;;;;;;;;6076082;23;20166;-92
2023/11/02 00:31:56;;;;;;;11.25;3.75;;;;;;;;;;6076066;23;20199;-91
2023/11/02 00:35:02;;;;;;;13.32;4.40;;;;;;;;;;6075248;23;20170;-94
2023/11/02 00:38:07;;;;;;;8.40;3.70;;;;;;;;;;6077777;23;20627;-93
2023/11/02 10:24:11;;;;;;;3.40;0.80;;;;;;;;;;6063889;22;1394568;-92
2023/11/02 10:27:17;;;;;;;1.27;0.65;;;;;;;;;;6022829;23;20206;-91
2023/11/02 10:30:24;;;;;;;0.98;0.80;;;;;;;;;;6012105;23;20567;-91
2023/11/02 10:36:50;;;;;;;1.65;0.80;;;;;;;;;;6015242;23;20217;-90
2023/11/02 10:39:56;;;;;;;4.00;1.17;;;;;;;;;;6011239;23;20213;-92
2023/11/02 10:43:02;;;;;;;3.47;0.88;;;;;;;;;;6011549;23;20167;-91
2023/11/02 10:46:09;;;;;;;3.13;0.63;;;;;;;;;;6011461;23;20552;-91
2023/11/02 10:49:16;;;;;;;2.00;0.80;;;;;;;;;;6011827;23;20167;-90
2023/11/02 10:52:28;;;;;;;2.75;1.00;;;;;;;;;;6009855;23;20680;-90
2023/11/02 10:55:42;;;;;;;4.35;0.95;;;;;;;;;;6009447;23;20171;-92
2023/11/02 10:58:48;;;;;;;2.60;0.93;;;;;;;;;;6007492;23;20734;-94
2023/11/02 11:01:54;;;;;;;2.60;0.80;;;;;;;;;;6009429;23;20282;-92
2023/11/02 11:05:00;;;;;;;3.80;1.67;;;;;;;;;;6009323;23;20217;-91
2023/11/02 11:08:08;;;;;;;2.45;0.80;;;;;;;;;;6012362;23;20264;-92
2023/11/02 11:11:20;;;;;;;10.43;2.90;;;;;;;;;;6009407;23;20171;-91
2023/11/02 11:14:25;;;;;;;1.60;0.80;;;;;;;;;;6006660;23;20522;-92
2023/11/02 11:17:30;;;;;;;3.47;0.68;;;;;;;;;;6008891;23;20173;-93
2023/11/02 11:20:38;;;;;;;1.00;0.70;;;;;;;;;;6007119;23;20195;-90
2023/11/02 11:23:46;;;;;;;1.45;0.70;;;;;;;;;;6008203;23;20180;-92
2023/11/02 11:26:55;;;;;;;1.10;0.80;;;;;;;;;;6006851;23;20230;-93
2023/11/02 11:30:04;;;;;;;1.63;0.80;;;;;;;;;;6011373;23;20180;-91
2023/11/02 11:33:29;;;;;;;3.40;1.00;;;;;;;;;;6011403;23;20176;-90
2023/11/02 11:36:35;;;;;;;4.20;0.90;;;;;;;;;;6010340;23;20172;-90
2023/11/02 11:39:40;;;;;;;3.50;1.00;;;;;;;;;;6008681;23;20171;-91
2023/11/02 11:43:04;;;;;;;1.30;0.80;;;;;;;;;;6009479;23;20159;-92
2023/11/02 11:46:12;;;;;;;2.05;0.80;;;;;;;;;;6009299;23;20176;-93
2023/11/02 11:49:36;;;;;;;2.03;0.80;;;;;;;;;;6010140;23;20193;-93
2023/11/02 11:52:41;;;;;;;1.02;0.75;;;;;;;;;;6008128;23;20163;-91
2023/11/02 11:55:51;;;;;;;2.10;1.13;;;;;;;;;;6009583;23;20168;-91
2023/11/02 11:58:59;;;;;;;1.80;0.88;;;;;;;;;;6008723;23;20532;-90
2023/11/02 12:02:26;;;;;;;0.70;0.63;;;;;;;;;;6009602;23;20203;-92
2023/11/02 12:05:52;;;;;;;4.95;0.90;;;;;;;;;;6010731;23;20156;-91
2023/11/02 12:08:57;;;;;;;1.20;0.63;;;;;;;;;;6010272;23;20255;-90
2023/11/02 12:12:05;;;;;;;2.33;1.08;;;;;;;;;;6011533;23;20256;-93
2023/11/02 12:15:19;;;;;;;1.35;0.80;;;;;;;;;;6012339;23;20208;-94
2023/11/02 12:18:27;;;;;;;5.28;0.80;;;;;;;;;;6012647;23;20159;-93
2023/11/02 12:21:33;;;;;;;1.25;0.70;;;;;;;;;;6009385;23;20204;-93
2023/11/02 12:24:41;;;;;;;1.48;0.80;;;;;;;;;;6012752;23;20204;-91
2023/11/02 12:27:56;;;;;;;3.28;1.00;;;;;;;;;;6011380;23;20499;-91
2023/11/02 12:31:04;;;;;;;2.75;0.80;;;;;;;;;;6011550;23;20176;-90
2023/11/02 12:34:12;;;;;;;2.40;0.82;;;;;;;;;;6011691;23;20269;-92
2023/11/02 13:49:06;;;;;;;4.32;1.42;;;;;;;;;;5948069;23;20225;-92
2023/11/02 13:52:20;;;;;;;6.43;1.90;;;;;;;;;;6041795;23;20180;-91
2023/11/02 13:55:26;;;;;;;7.75;2.00;;;;;;;;;;6028422;23;20172;-90
2023/11/02 13:58:32;;;;;;;2.80;1.48;;;;;;;;;;6026672;23;20167;-89
2023/11/02 14:01:38;;;;;;;6.68;1.77;;;;;;;;;;6026124;23;20270;-91
2023/11/02 14:04:45;;;;;;;3.83;2.03;;;;;;;;;;6026669;23;20183;-90
2023/11/02 14:07:51;;;;;;;2.95;1.20;;;;;;;;;;6026836;23;20245;-91
2023/11/02 14:10:57;;;;;;;4.00;1.50;;;;;;;;;;6026186;23;20176;-91
2023/11/02 14:14:03;;;;;;;3.40;1.55;;;;;;;;;;6025855;23;20182;-91
2023/11/02 14:17:09;;;;;;;3.17;1.50;;;;;;;;;;6027421;23;20155;-92
2023/11/02 14:20:15;;;;;;;4.95;1.35;;;;;;;;;;6026537;23;20197;-91
2023/11/02 14:23:20;;;;;;;5.55;1.70;;;;;;;;;;6026154;23;20252;-90
2023/11/02 14:26:25;;;;;;;7.22;2.17;;;;;;;;;;6026500;23;20163;-91
2023/11/02 14:29:31;;;;;;;12.60;3.30;;;;;;;;;;6045448;23;20200;-91
2023/11/02 14:32:37;;;;;;;6.38;2.55;;;;;;;;;;6027610;23;20179;-92
2023/11/02 14:35:45;;;;;;;4.63;2.10;;;;;;;;;;6028555;23;20228;-91
2023/11/02 14:38:51;;;;;;;6.53;2.20;;;;;;;;;;6029219;23;20176;-91
2023/11/02 14:41:59;;;;;;;5.45;1.88;;;;;;;;;;6027366;23;20187;-90
2023/11/02 14:45:05;;;;;;;5.38;2.20;;;;;;;;;;6030107;23;20560;-94
2023/11/02 14:48:10;;;;;;;5.38;2.10;;;;;;;;;;6027600;23;20180;-92
2023/11/02 14:51:17;;;;;;;4.80;2.30;;;;;;;;;;6027642;23;20197;-91
2023/11/02 14:54:22;;;;;;;13.68;2.47;;;;;;;;;;6025608;23;20180;-90
2023/11/02 14:57:28;;;;;;;5.50;2.03;;;;;;;;;;6027051;23;20175;-92
2023/11/02 15:00:33;;;;;;;5.47;2.75;;;;;;;;;;6027747;23;20214;-90
2023/11/02 15:03:39;;;;;;;9.40;3.40;;;;;;;;;;6027103;23;20172;-89
2023/11/02 15:06:46;;;;;;;18.70;3.67;;;;;;;;;;6027155;23;20521;-91
2023/11/02 15:09:51;;;;;;;5.25;2.13;;;;;;;;;;6025777;23;20217;-90
2023/11/02 15:12:59;;;;;;;3.58;1.80;;;;;;;;;;6026662;23;20160;-87
2023/11/02 15:19:24;;;;;;;8.05;2.20;;;;;;;;;;6027285;23;20249;-90
2023/11/02 15:22:33;;;;;;;7.57;2.28;;;;;;;;;;6026691;23;20229;-90
2023/11/02 15:25:39;;;;;;;5.47;2.25;;;;;;;;;;6026548;23;20228;-90
2023/11/02 15:28:44;;;;;;;4.68;1.80;;;;;;;;;;6026712;23;20180;-90
2023/11/02 15:31:49;;;;;;;7.00;2.05;;;;;;;;;;6027249;23;20197;-88
2023/11/02 15:34:55;;;;;;;4.53;2.13;;;;;;;;;;6027972;23;20176;-92
2023/11/02 15:38:12;;;;;;;4.25;2.20;;;;;;;;;;6028032;23;20217;-89
2023/11/02 15:41:24;;;;;;;5.60;2.25;;;;;;;;;;6027682;23;20172;-91
2023/11/02 15:44:34;;;;;;;6.85;1.98;;;;;;;;;;6026908;23;20229;-89
2023/11/02 15:47:39;;;;;;;6.90;2.17;;;;;;;;;;6026122;23;20177;-91
2023/11/02 15:50:45;;;;;;;3.95;2.08;;;;;;;;;;6027090;23;20228;-91
2023/11/02 15:53:52;;;;;;;6.95;1.90;;;;;;;;;;6027275;23;20176;-92
2023/11/02 15:57:03;;;;;;;6.15;1.88;;;;;;;;;;6027086;23;20171;-89
2023/11/02 16:00:11;;;;;;;5.00;2.20;;;;;;;;;;6026923;23;20248;-93
2023/11/02 16:03:17;;;;;;;5.50;1.95;;;;;;;;;;6048164;23;20220;-90
2023/11/02 16:06:23;;;;;;;8.80;2.47;;;;;;;;;;6027514;23;20168;-89
2023/11/02 16:09:31;;;;;;;5.22;2.50;;;;;;;;;;6029130;23;20529;-90
2023/11/02 16:12:37;;;;;;;6.20;2.13;;;;;;;;;;6027902;23;20167;-91
2023/11/02 16:15:42;;;;;;;10.10;2.40;;;;;;;;;;6026200;23;20175;-89
2023/11/02 16:18:48;;;;;;;5.70;2.40;;;;;;;;;;6026576;23;20179;-90
2023/11/02 16:21:55;;;;;;;6.75;2.40;;;;;;;;;;6024871;23;20196;-90
2023/11/02 16:25:06;;;;;;;4.45;2.17;;;;;;;;;;6042587;23;20172;-90
2023/11/02 16:28:12;;;;;;;5.65;2.40;;;;;;;;;;6026873;23;20172;-89
2023/11/02 16:31:22;;;;;;;7.03;2.45;;;;;;;;;;6027262;23;20201;-91
2023/11/02 16:34:28;;;;;;;4.43;2.42;;;;;;;;;;6027561;23;20172;-91
2023/11/02 16:37:37;;;;;;;4.07;2.42;;;;;;;;;;6027954;23;20198;-90
2023/11/02 16:40:44;;;;;;;5.38;2.47;;;;;;;;;;6029072;23;20181;-91
2023/11/02 16:43:51;;;;;;;5.72;2.40;;;;;;;;;;6030589;23;20470;-89
2023/11/02 16:46:59;;;;;;;4.80;2.10;;;;;;;;;;6028751;23;20224;-90
2023/11/02 16:50:05;;;;;;;4.22;2.20;;;;;;;;;;6028139;23;20199;-90
2023/11/02 16:53:12;;;;;;;5.15;2.20;;;;;;;;;;6011250;23;20176;-91
2023/11/02 16:56:18;;;;;;;4.47;2.40;;;;;;;;;;6026877;23;20181;-91
2023/11/02 16:59:24;;;;;;;3.70;2.22;;;;;;;;;;6030206;23;20175;-91
2023/11/02 17:02:30;;;;;;;3.47;1.92;;;;;;;;;;6029900;23;20668;-91
2023/11/02 17:08:56;;;;;;;4.15;2.30;;;;;;;;;;6027396;23;20214;-88
2023/11/02 17:12:04;;;;;;;8.15;2.55;;;;;;;;;;6027377;23;20217;-91
2023/11/02 17:15:16;;;;;;;4.30;2.45;;;;;;;;;;6026715;23;20176;-89
2023/11/02 17:18:22;;;;;;;3.60;2.22;;;;;;;;;;6028152;23;20241;-90
2023/11/02 17:21:28;;;;;;;5.63;2.33;;;;;;;;;;6026213;23;20167;-88
2023/11/02 17:24:35;;;;;;;5.40;2.70;;;;;;;;;;6028073;23;20176;-90
2023/11/02 17:27:55;;;;;;;6.32;2.60;;;;;;;;;;6029941;23;20171;-93
2023/11/02 17:31:02;;;;;;;4.10;2.20;;;;;;;;;;6028644;23;20764;-88
2023/11/02 17:34:08;;;;;;;5.50;2.80;;;;;;;;;;6029339;23;20172;-91
2023/11/02 17:37:14;;;;;;;4.22;2.20;;;;;;;;;;6029944;23;20159;-91
2023/11/02 17:40:29;;;;;;;6.13;2.53;;;;;;;;;;6029359;23;20241;-91
2023/11/02 17:43:39;;;;;;;8.90;2.25;;;;;;;;;;6013548;23;20276;-91
2023/11/02 17:46:45;;;;;;;4.97;2.03;;;;;;;;;;6027473;23;20246;-90
2023/11/02 17:53:09;;;;;;;4.55;2.38;;;;;;;;;;6031846;23;20179;-90
2023/11/02 18:43:13;;;;;;;4.95;2.55;;;;;;;;;;5930423;23;20544;-88
2023/11/02 18:46:19;;;;;;;17.05;7.80;;;;;;;;;;6001349;23;20223;-90
2023/11/02 18:49:24;;;;;;;10.13;3.92;;;;;;;;;;6040334;23;20247;-91
2023/11/02 18:52:30;;;;;;;4.90;2.60;;;;;;;;;;6039583;23;20178;-90
2023/11/02 18:55:36;;;;;;;9.93;3.00;;;;;;;;;;6041871;23;20226;-90
2023/11/02 18:58:43;;;;;;;5.97;3.00;;;;;;;;;;6057077;23;20615;-91
2023/11/02 19:01:52;;;;;;;9.77;3.55;;;;;;;;;;6039795;23;20244;-91
2023/11/02 19:04:58;;;;;;;9.45;4.10;;;;;;;;;;6039867;23;20205;-91
2023/11/02 19:08:04;;;;;;;8.77;3.83;;;;;;;;;;6056232;23;20182;-91
2023/11/02 19:11:10;;;;;;;6.07;3.67;;;;;;;;;;6041048;23;20230;-91
2023/11/02 19:14:17;;;;;;;8.43;3.72;;;;;;;;;;6038448;23;20175;-91
2023/11/02 19:17:23;;;;;;;6.10;3.10;;;;;;;;;;6039700;23;20624;-90
2023/11/02 19:20:29;;;;;;;6.45;2.75;;;;;;;;;;6040278;23;20170;-91
2023/11/02 19:23:36;;;;;;;5.72;3.13;;;;;;;;;;6040683;23;20278;-91
2023/11/02 19:26:41;;;;;;;6.95;2.92;;;;;;;;;;6039695;23;20163;-91
2023/11/02 19:29:48;;;;;;;13.88;6.63;;;;;;;;;;6040021;23;20244;-89
2023/11/02 19:32:55;;;;;;;7.50;3.25;;;;;;;;;;6041661;23;20174;-89
2023/11/02 19:36:01;;;;;;;6.60;3.90;;;;;;;;;;6042757;23;20175;-90
2023/11/02 19:39:08;;;;;;;6.97;3.70;;;;;;;;;;6040704;23;20175;-89
2023/11/02 19:42:13;;;;;;;6.78;4.15;;;;;;;;;;6043812;23;20164;-91
2023/11/02 19:45:21;;;;;;;6.90;3.95;;;;;;;;;;6031746;23;20196;-90
2023/11/02 19:48:27;;;;;;;7.20;4.30;;;;;;;;;;6031142;23;20182;-92
2023/11/02 19:51:33;;;;;;;8.13;4.47;;;;;;;;;;6030677;23;20180;-90
2023/11/02 19:54:39;;;;;;;9.07;4.40;;;;;;;;;;6029533;23;20180;-93
2023/11/02 19:57:45;;;;;;;7.05;4.07;;;;;;;;;;6029915;23;20184;-90
2023/11/02 20:00:53;;;;;;;11.35;6.22;;;;;;;;;;6029148;23;20159;-89
2023/11/02 20:04:03;;;;;;;6.38;3.70;;;;;;;;;;6029889;23;20199;-91
2023/11/02 20:07:13;;;;;;;10.13;4.75;;;;;;;;;;6030064;23;20180;-93
2023/11/02 20:10:21;;;;;;;12.20;4.97;;;;;;;;;;6030977;23;20226;-92
2023/11/02 20:13:28;;;;;;;10.23;4.80;;;;;;;;;;6030264;23;20202;-93
2023/11/02 20:16:35;;;;;;;8.52;4.60;;;;;;;;;;6028925;23;20232;-89
2023/11/02 20:19:41;;;;;;;4.65;2.78;;;;;;;;;;6030267;23;20175;-92
2023/11/02 20:22:47;;;;;;;1.42;0.60;;;;;;;;;;6028564;23;20528;-93
2023/11/02 20:25:54;;;;;;;0.70;0.70;;;;;;;;;;6031582;23;20175;-93
2023/11/02 20:28:59;;;;;;;1.10;0.73;;;;;;;;;;6045611;23;20171;-92
2023/11/02 20:32:09;;;;;;;9.02;2.05;;;;;;;;;;6029018;23;20205;-90
2023/11/02 20:35:14;;;;;;;0.52;0.52;;;;;;;;;;6028646;23;20172;-92
2023/11/02 20:38:20;;;;;;;3.95;0.68;;;;;;;;;;6028648;23;20175;-91
2023/11/02 20:41:26;;;;;;;0.52;0.52;;;;;;;;;;6029143;23;20171;-92
2023/11/02 20:44:31;;;;;;;0.50;0.50;;;;;;;;;;6029641;23;20292;-92
2023/11/02 20:47:39;;;;;;;0.55;0.45;;;;;;;;;;6027999;23;20167;-92
2023/11/02 20:50:44;;;;;;;0.40;0.40;;;;;;;;;;6028734;23;20220;-95
2023/11/02 20:53:50;;;;;;;0.38;0.38;;;;;;;;;;6028802;23;20184;-94
2023/11/02 20:56:57;;;;;;;2.78;1.08;;;;;;;;;;6029672;23;20194;-93
2023/11/02 21:00:03;;;;;;;0.63;0.63;;;;;;;;;;6031645;23;20175;-91
2023/11/02 21:03:12;;;;;;;1.75;1.05;;;;;;;;;;6028388;23;20203;-90
2023/11/02 21:06:18;;;;;;;0.30;0.30;;;;;;;;;;6030614;23;20224;-92
2023/11/02 21:09:23;;;;;;;1.10;1.00;;;;;;;;;;6024105;23;20175;-91
2023/11/02 21:12:28;;;;;;;0.50;0.50;;;;;;;;;;6024541;23;20176;-92
2023/11/02 21:15:33;;;;;;;1.20;0.75;;;;;;;;;;6023626;23;20176;-90
2023/11/02 21:18:45;;;;;;;0.45;0.45;;;;;;;;;;6028480;23;20642;-93
2023/11/02 21:21:52;;;;;;;0.90;0.50;;;;;;;;;;6030637;23;20164;-93
2023/11/02 21:24:57;;;;;;;0.47;0.47;;;;;;;;;;6029052;23;20232;-92
2023/11/02 21:28:05;;;;;;;0.75;0.63;;;;;;;;;;6030346;23;20271;-89
2023/11/02 21:31:13;;;;;;;0.65;0.65;;;;;;;;;;6027791;23;20209;-88
2023/11/02 21:34:21;;;;;;;0.50;0.50;;;;;;;;;;6026518;23;20176;-91
2023/11/02 21:37:26;;;;;;;2.58;0.65;;;;;;;;;;6026934;23;20228;-93
2023/11/02 21:40:32;;;;;;;1.17;1.05;;;;;;;;;;6024906;23;20171;-92
2023/11/02 21:43:38;;;;;;;0.30;0.30;;;;;;;;;;6030134;23;20210;-92
2023/11/02 21:46:43;;;;;;;0.20;0.20;;;;;;;;;;6037491;23;20198;-91
2023/11/02 21:49:50;;;;;;;0.30;0.30;;;;;;;;;;6037537;23;20179;-92
2023/11/02 21:52:55;;;;;;;0.30;0.30;;;;;;;;;;6038066;23;20175;-91
2023/11/02 21:56:00;;;;;;;0.50;0.50;;;;;;;;;;6038794;23;20213;-91
2023/11/02 21:59:09;;;;;;;0.30;0.30;;;;;;;;;;6036285;23;20631;-92
2023/11/02 22:02:14;;;;;;;0.40;0.40;;;;;;;;;;6037589;23;20216;-93
2023/11/02 22:05:25;;;;;;;1.02;0.65;;;;;;;;;;6037422;23;20164;-94
2023/11/02 22:08:29;;;;;;;0.47;0.47;;;;;;;;;;6035696;23;20634;-94
2023/11/02 22:11:34;;;;;;;0.60;0.60;;;;;;;;;;6036945;23;20518;-93
2023/11/02 22:14:39;;;;;;;0.50;0.50;;;;;;;;;;6036572;23;20312;-90
2023/11/02 22:17:45;;;;;;;0.20;0.20;;;;;;;;;;6035712;23;20224;-92
2023/11/02 22:20:55;;;;;;;0.20;0.20;;;;;;;;;;6036296;23;20171;-92
2023/11/02 22:24:00;;;;;;;0.30;0.30;;;;;;;;;;6036460;23;20208;-93
2023/11/02 22:27:06;;;;;;;0.30;0.30;;;;;;;;;;6037424;23;20167;-93
2023/11/02 22:30:12;;;;;;;0.40;0.40;;;;;;;;;;6034451;23;20180;-89
2023/11/02 22:33:18;;;;;;;0.55;0.55;;;;;;;;;;6036592;23;20171;-93
2023/11/02 22:36:25;;;;;;;0.30;0.30;;;;;;;;;;6037276;23;20176;-94
2023/11/02 22:39:30;;;;;;;0.90;0.82;;;;;;;;;;6035241;23;20175;-93
2023/11/02 22:42:35;;;;;;;0.35;0.35;;;;;;;;;;6034499;23;20178;-91
2023/11/02 22:45:40;;;;;;;0.88;0.75;;;;;;;;;;6036035;23;20987;-92
2023/11/02 22:48:45;;;;;;;0.98;0.50;;;;;;;;;;6034827;23;20696;-91
2023/11/02 22:51:53;;;;;;;1.13;0.40;;;;;;;;;;6035740;23;20171;-90
2023/11/02 22:54:58;;;;;;;0.75;0.68;;;;;;;;;;6038055;23;20170;-94
2023/11/02 22:58:03;;;;;;;0.30;0.30;;;;;;;;;;6037670;23;20176;-89
2023/11/02 23:01:08;;;;;;;0.40;0.40;;;;;;;;;;6038728;23;20184;-91
2023/11/02 23:04:14;;;;;;;0.30;0.30;;;;;;;;;;6039573;23;20265;-93
2023/11/02 23:07:21;;;;;;;0.40;0.40;;;;;;;;;;6039188;23;20237;-90
2023/11/02 23:10:28;;;;;;;0.40;0.40;;;;;;;;;;6040055;23;20154;-91
2023/11/02 23:13:35;;;;;;;0.52;0.50;;;;;;;;;;6040433;23;20178;-93
2023/11/02 23:16:41;;;;;;;0.20;0.20;;;;;;;;;;6036988;23;20204;-91
2023/11/02 23:19:53;;;;;;;0.75;0.57;;;;;;;;;;6041713;23;20192;-91
2023/11/02 23:23:00;;;;;;;0.30;0.30;;;;;;;;;;6036086;23;20176;-90
2023/11/02 23:26:06;;;;;;;0.20;0.20;;;;;;;;;;6038602;23;20170;-92
2023/11/02 23:29:12;;;;;;;0.90;0.90;;;;;;;;;;6036975;23;20616;-91
2023/11/02 23:32:17;;;;;;;0.40;0.40;;;;;;;;;;6037669;23;20184;-91
2023/11/02 23:35:22;;;;;;;0.75;0.40;;;;;;;;;;6040180;23;20155;-93
2023/11/02 23:38:29;;;;;;;0.75;0.65;;;;;;;;;;6039521;23;20254;-90
2023/11/02 23:41:38;;;;;;;0.20;0.20;;;;;;;;;;6040040;23;20209;-93
2023/11/02 23:44:44;;;;;;;0.25;0.25;;;;;;;;;;6026499;23;20215;-91
2023/11/02 23:47:50;;;;;;;0.40;0.40;;;;;;;;;;6026957;23;20183;-93
2023/11/02 23:50:56;;;;;;;0.30;0.30;;;;;;;;;;6028146;23;20197;-91
2023/11/02 23:54:03;;;;;;;0.85;0.50;;;;;;;;;;6023898;23;20256;-91
2023/11/02 23:57:09;;;;;;;21.27;1.17;;;;;;;;;;6027563;23;20661;-92
